sensor_id;sensor_type;location;lat;lon;timestamp;temperature;humidity
20722;DHT22;10522;52.198;9.890;2023-04-25T00:01:56;6.90;99.90
20722;DHT22;10522;52.198;9.890;2023-04-25T00:04:22;6.80;99.90
20722;DHT22;10522;52.198;9.890;2023-04-25T00:06:47;6.80;99.90
20722;DHT22;10522;52.198;9.890;2023-04-25T00:09:13;6.80;99.90
20722;DHT22;10522;52.198;9.890;2023-04-25T00:11:40;6.80;99.90
20722;DHT22;10522;52.198;9.890;2023-04-25T00:14:06;6.70;99.90
20722;DHT22;10522;52.198;9.890;2023-04-25T00:16:32;6.70;99.90
20722;DHT22;10522;52.198;9.890;2023-04-25T00:19:00;6.70;99.90
20722;DHT22;10522;52.198;9.890;2023-04-25T00:21:26;6.70;99.90
20722;DHT22;10522;52.198;9.890;2023-04-25T00:23:54;6.70;99.90
20722;DHT22;10522;52.198;9.890;2023-04-25T00:26:20;6.60;99.90
20722;DHT22;10522;52.198;9.890;2023-04-25T00:28:48;6.60;99.90
20722;DHT22;10522;52.198;9.890;2023-04-25T00:31:14;6.60;99.90
20722;DHT22;10522;52.198;9.890;2023-04-25T00:33:40;6.70;99.90
20722;DHT22;10522;52.198;9.890;2023-04-25T00:36:06;6.70;99.90
20722;DHT22;10522;52.198;9.890;2023-04-25T00:38:32;6.70;99.90
20722;DHT22;10522;52.198;9.890;2023-04-25T00:40:57;6.70;99.90
20722;DHT22;10522;52.198;9.890;2023-04-25T00:43:26;6.60;99.90
20722;DHT22;10522;52.198;9.890;2023-04-25T00:45:52;6.60;99.90
20722;DHT22;10522;52.198;9.890;2023-04-25T00:48:20;6.60;99.90
20722;DHT22;10522;52.198;9.890;2023-04-25T00:50:57;6.60;99.90
20722;DHT22;10522;52.198;9.890;2023-04-25T00:53:25;6.60;99.90
20722;DHT22;10522;52.198;9.890;2023-04-25T00:55:51;6.60;99.90
20722;DHT22;10522;52.198;9.890;2023-04-25T00:58:18;6.60;99.90
20722;DHT22;10522;52.198;9.890;2023-04-25T01:00:48;6.60;99.90
20722;DHT22;10522;52.198;9.890;2023-04-25T01:03:14;6.70;99.90
20722;DHT22;10522;52.198;9.890;2023-04-25T01:05:42;6.70;99.90
20722;DHT22;10522;52.198;9.890;2023-04-25T01:08:07;6.70;99.90
20722;DHT22;10522;52.198;9.890;2023-04-25T01:10:33;6.70;99.90
20722;DHT22;10522;52.198;9.890;2023-04-25T01:12:59;6.70;99.90
20722;DHT22;10522;52.198;9.890;2023-04-25T01:15:24;6.70;99.90
20722;DHT22;10522;52.198;9.890;2023-04-25T01:17:50;6.70;99.90
20722;DHT22;10522;52.198;9.890;2023-04-25T01:20:15;6.70;99.90
20722;DHT22;10522;52.198;9.890;2023-04-25T01:22:42;6.70;99.90
20722;DHT22;10522;52.198;9.890;2023-04-25T01:25:08;6.70;99.90
20722;DHT22;10522;52.198;9.890;2023-04-25T01:27:36;6.70;99.90
20722;DHT22;10522;52.198;9.890;2023-04-25T01:30:02;6.70;99.90
20722;DHT22;10522;52.198;9.890;2023-04-25T01:32:29;6.70;99.90
20722;DHT22;10522;52.198;9.890;2023-04-25T01:34:57;6.70;99.90
20722;DHT22;10522;52.198;9.890;2023-04-25T01:37:22;6.70;99.90
20722;DHT22;10522;52.198;9.890;2023-04-25T01:39:48;6.70;99.90
20722;DHT22;10522;52.198;9.890;2023-04-25T01:42:15;6.70;99.90
20722;DHT22;10522;52.198;9.890;2023-04-25T01:44:41;6.70;99.90
20722;DHT22;10522;52.198;9.890;2023-04-25T01:47:06;6.70;99.90
20722;DHT22;10522;52.198;9.890;2023-04-25T01:49:32;6.60;99.90
20722;DHT22;10522;52.198;9.890;2023-04-25T01:51:57;6.60;99.90
20722;DHT22;10522;52.198;9.890;2023-04-25T01:54:23;6.60;99.90
20722;DHT22;10522;52.198;9.890;2023-04-25T01:56:52;6.60;99.90
20722;DHT22;10522;52.198;9.890;2023-04-25T01:59:19;6.60;99.90
20722;DHT22;10522;52.198;9.890;2023-04-25T02:01:47;6.60;99.90
20722;DHT22;10522;52.198;9.890;2023-04-25T02:04:12;6.60;99.90
20722;DHT22;10522;52.198;9.890;2023-04-25T02:06:38;6.60;99.90
20722;DHT22;10522;52.198;9.890;2023-04-25T02:09:03;6.60;99.90
20722;DHT22;10522;52.198;9.890;2023-04-25T02:11:29;6.60;99.90
20722;DHT22;10522;52.198;9.890;2023-04-25T02:13:54;6.60;99.90
20722;DHT22;10522;52.198;9.890;2023-04-25T02:16:20;6.60;99.90
20722;DHT22;10522;52.198;9.890;2023-04-25T02:18:45;6.60;99.90
20722;DHT22;10522;52.198;9.890;2023-04-25T02:21:12;6.60;99.90
20722;DHT22;10522;52.198;9.890;2023-04-25T02:23:37;6.60;99.90
20722;DHT22;10522;52.198;9.890;2023-04-25T02:26:03;6.60;99.90
20722;DHT22;10522;52.198;9.890;2023-04-25T02:28:29;6.60;99.90
20722;DHT22;10522;52.198;9.890;2023-04-25T02:30:54;6.60;99.90
20722;DHT22;10522;52.198;9.890;2023-04-25T02:33:20;6.60;99.90
20722;DHT22;10522;52.198;9.890;2023-04-25T02:35:46;6.60;99.90
20722;DHT22;10522;52.198;9.890;2023-04-25T02:38:12;6.50;99.90
20722;DHT22;10522;52.198;9.890;2023-04-25T02:40:37;6.50;99.90
20722;DHT22;10522;52.198;9.890;2023-04-25T02:43:03;6.50;99.90
20722;DHT22;10522;52.198;9.890;2023-04-25T02:45:29;6.50;99.90
20722;DHT22;10522;52.198;9.890;2023-04-25T02:47:54;6.50;99.90
20722;DHT22;10522;52.198;9.890;2023-04-25T02:50:20;6.50;99.90
20722;DHT22;10522;52.198;9.890;2023-04-25T02:52:45;6.40;99.90
20722;DHT22;10522;52.198;9.890;2023-04-25T02:55:12;6.40;99.90
20722;DHT22;10522;52.198;9.890;2023-04-25T02:57:38;6.40;99.90
20722;DHT22;10522;52.198;9.890;2023-04-25T03:00:04;6.40;99.90
20722;DHT22;10522;52.198;9.890;2023-04-25T03:02:30;6.40;99.90
20722;DHT22;10522;52.198;9.890;2023-04-25T03:04:56;6.40;99.90
20722;DHT22;10522;52.198;9.890;2023-04-25T03:07:21;6.30;99.90
20722;DHT22;10522;52.198;9.890;2023-04-25T03:09:47;6.10;99.90
20722;DHT22;10522;52.198;9.890;2023-04-25T03:12:12;6.10;99.90
20722;DHT22;10522;52.198;9.890;2023-04-25T03:14:38;6.10;99.90
20722;DHT22;10522;52.198;9.890;2023-04-25T03:17:04;6.10;99.90
20722;DHT22;10522;52.198;9.890;2023-04-25T03:19:29;6.10;99.90
20722;DHT22;10522;52.198;9.890;2023-04-25T03:21:55;6.10;99.90
20722;DHT22;10522;52.198;9.890;2023-04-25T03:24:21;6.00;99.90
20722;DHT22;10522;52.198;9.890;2023-04-25T03:26:47;6.10;99.90
20722;DHT22;10522;52.198;9.890;2023-04-25T03:29:12;6.00;99.90
20722;DHT22;10522;52.198;9.890;2023-04-25T03:31:38;6.00;99.90
20722;DHT22;10522;52.198;9.890;2023-04-25T03:34:04;6.00;99.90
20722;DHT22;10522;52.198;9.890;2023-04-25T03:36:29;6.00;99.90
20722;DHT22;10522;52.198;9.890;2023-04-25T03:38:55;6.00;99.90
20722;DHT22;10522;52.198;9.890;2023-04-25T03:41:20;6.00;99.90
20722;DHT22;10522;52.198;9.890;2023-04-25T03:43:46;6.00;99.90
20722;DHT22;10522;52.198;9.890;2023-04-25T03:46:12;6.00;99.90
20722;DHT22;10522;52.198;9.890;2023-04-25T03:48:37;6.00;99.90
20722;DHT22;10522;52.198;9.890;2023-04-25T03:51:03;6.00;99.90
20722;DHT22;10522;52.198;9.890;2023-04-25T03:53:28;6.00;99.90
20722;DHT22;10522;52.198;9.890;2023-04-25T03:55:54;6.00;99.90
20722;DHT22;10522;52.198;9.890;2023-04-25T03:58:20;6.00;99.90
20722;DHT22;10522;52.198;9.890;2023-04-25T04:00:45;6.00;99.90
20722;DHT22;10522;52.198;9.890;2023-04-25T04:03:11;6.00;99.90
20722;DHT22;10522;52.198;9.890;2023-04-25T04:05:36;6.00;99.90
20722;DHT22;10522;52.198;9.890;2023-04-25T04:08:02;6.10;99.90
20722;DHT22;10522;52.198;9.890;2023-04-25T04:10:28;6.10;99.90
20722;DHT22;10522;52.198;9.890;2023-04-25T04:12:54;6.10;99.90
20722;DHT22;10522;52.198;9.890;2023-04-25T04:15:19;6.10;99.90
20722;DHT22;10522;52.198;9.890;2023-04-25T04:17:45;6.10;99.90
20722;DHT22;10522;52.198;9.890;2023-04-25T04:20:12;6.00;99.90
20722;DHT22;10522;52.198;9.890;2023-04-25T04:22:37;6.00;99.90
20722;DHT22;10522;52.198;9.890;2023-04-25T04:25:03;6.00;99.90
20722;DHT22;10522;52.198;9.890;2023-04-25T04:27:31;6.10;99.90
20722;DHT22;10522;52.198;9.890;2023-04-25T04:29:57;6.00;99.90
20722;DHT22;10522;52.198;9.890;2023-04-25T04:32:23;6.00;99.90
20722;DHT22;10522;52.198;9.890;2023-04-25T04:34:49;6.00;99.90
20722;DHT22;10522;52.198;9.890;2023-04-25T04:37:15;6.10;99.90
20722;DHT22;10522;52.198;9.890;2023-04-25T04:39:40;6.10;99.90
20722;DHT22;10522;52.198;9.890;2023-04-25T04:42:06;6.10;99.90
20722;DHT22;10522;52.198;9.890;2023-04-25T04:44:33;6.10;99.90
20722;DHT22;10522;52.198;9.890;2023-04-25T04:46:59;6.00;99.90
20722;DHT22;10522;52.198;9.890;2023-04-25T04:49:25;6.10;99.90
20722;DHT22;10522;52.198;9.890;2023-04-25T04:51:51;6.10;99.90
20722;DHT22;10522;52.198;9.890;2023-04-25T04:54:17;6.10;99.90
20722;DHT22;10522;52.198;9.890;2023-04-25T04:56:43;6.10;99.90
20722;DHT22;10522;52.198;9.890;2023-04-25T04:59:08;6.10;99.90
20722;DHT22;10522;52.198;9.890;2023-04-25T05:01:34;6.20;99.90
20722;DHT22;10522;52.198;9.890;2023-04-25T05:04:02;6.20;99.90
20722;DHT22;10522;52.198;9.890;2023-04-25T05:06:29;6.30;99.90
20722;DHT22;10522;52.198;9.890;2023-04-25T05:08:55;6.30;99.90
20722;DHT22;10522;52.198;9.890;2023-04-25T05:11:22;6.30;99.90
20722;DHT22;10522;52.198;9.890;2023-04-25T05:13:47;6.30;99.90
20722;DHT22;10522;52.198;9.890;2023-04-25T05:16:13;6.20;99.90
20722;DHT22;10522;52.198;9.890;2023-04-25T05:18:39;6.20;99.90
20722;DHT22;10522;52.198;9.890;2023-04-25T05:21:05;6.20;99.90
20722;DHT22;10522;52.198;9.890;2023-04-25T05:23:32;6.20;99.90
20722;DHT22;10522;52.198;9.890;2023-04-25T05:25:58;6.20;99.90
20722;DHT22;10522;52.198;9.890;2023-04-25T05:28:23;6.20;99.90
20722;DHT22;10522;52.198;9.890;2023-04-25T05:30:49;6.20;99.90
20722;DHT22;10522;52.198;9.890;2023-04-25T05:33:15;6.30;99.90
20722;DHT22;10522;52.198;9.890;2023-04-25T05:35:41;6.30;99.90
20722;DHT22;10522;52.198;9.890;2023-04-25T05:38:07;6.30;99.90
20722;DHT22;10522;52.198;9.890;2023-04-25T05:40:33;6.50;99.90
20722;DHT22;10522;52.198;9.890;2023-04-25T05:42:58;6.50;99.90
20722;DHT22;10522;52.198;9.890;2023-04-25T05:45:24;6.50;99.90
20722;DHT22;10522;52.198;9.890;2023-04-25T05:47:49;6.60;99.90
20722;DHT22;10522;52.198;9.890;2023-04-25T05:50:15;6.60;99.90
20722;DHT22;10522;52.198;9.890;2023-04-25T05:52:41;6.70;99.90
20722;DHT22;10522;52.198;9.890;2023-04-25T05:55:06;6.70;99.90
20722;DHT22;10522;52.198;9.890;2023-04-25T05:57:32;6.70;99.90
20722;DHT22;10522;52.198;9.890;2023-04-25T05:59:58;6.80;99.90
20722;DHT22;10522;52.198;9.890;2023-04-25T06:02:23;6.80;99.90
20722;DHT22;10522;52.198;9.890;2023-04-25T06:04:50;6.80;99.90
20722;DHT22;10522;52.198;9.890;2023-04-25T06:07:16;6.80;99.90
20722;DHT22;10522;52.198;9.890;2023-04-25T06:09:43;6.90;99.90
20722;DHT22;10522;52.198;9.890;2023-04-25T06:12:09;6.80;99.90
20722;DHT22;10522;52.198;9.890;2023-04-25T06:14:35;6.80;99.90
20722;DHT22;10522;52.198;9.890;2023-04-25T06:17:07;6.70;99.90
20722;DHT22;10522;52.198;9.890;2023-04-25T06:19:34;6.70;99.90
20722;DHT22;10522;52.198;9.890;2023-04-25T06:22:00;6.60;99.90
20722;DHT22;10522;52.198;9.890;2023-04-25T06:24:26;6.70;99.90
20722;DHT22;10522;52.198;9.890;2023-04-25T06:26:55;6.70;99.90
20722;DHT22;10522;52.198;9.890;2023-04-25T06:29:23;6.70;99.90
20722;DHT22;10522;52.198;9.890;2023-04-25T06:31:49;6.80;99.90
20722;DHT22;10522;52.198;9.890;2023-04-25T06:34:15;6.80;99.90
20722;DHT22;10522;52.198;9.890;2023-04-25T06:36:40;6.70;99.90
20722;DHT22;10522;52.198;9.890;2023-04-25T06:39:07;6.80;99.90
20722;DHT22;10522;52.198;9.890;2023-04-25T06:41:33;6.80;99.90
20722;DHT22;10522;52.198;9.890;2023-04-25T06:43:59;6.80;99.90
20722;DHT22;10522;52.198;9.890;2023-04-25T06:46:24;6.80;99.90
20722;DHT22;10522;52.198;9.890;2023-04-25T06:48:50;6.80;99.90
20722;DHT22;10522;52.198;9.890;2023-04-25T06:51:16;6.90;99.90
20722;DHT22;10522;52.198;9.890;2023-04-25T06:53:41;7.20;99.90
20722;DHT22;10522;52.198;9.890;2023-04-25T06:56:07;7.40;99.90
20722;DHT22;10522;52.198;9.890;2023-04-25T06:58:33;7.60;99.90
20722;DHT22;10522;52.198;9.890;2023-04-25T07:00:58;7.60;99.90
20722;DHT22;10522;52.198;9.890;2023-04-25T07:03:24;8.00;99.90
20722;DHT22;10522;52.198;9.890;2023-04-25T07:05:50;8.20;99.90
20722;DHT22;10522;52.198;9.890;2023-04-25T07:08:16;8.40;99.90
20722;DHT22;10522;52.198;9.890;2023-04-25T07:10:42;8.30;99.90
20722;DHT22;10522;52.198;9.890;2023-04-25T07:13:07;7.80;99.90
20722;DHT22;10522;52.198;9.890;2023-04-25T07:15:33;7.50;99.90
20722;DHT22;10522;52.198;9.890;2023-04-25T07:17:59;7.70;99.90
20722;DHT22;10522;52.198;9.890;2023-04-25T07:20:24;7.90;99.90
20722;DHT22;10522;52.198;9.890;2023-04-25T07:22:50;8.00;99.90
20722;DHT22;10522;52.198;9.890;2023-04-25T07:25:16;8.00;99.90
20722;DHT22;10522;52.198;9.890;2023-04-25T07:27:42;8.00;99.90
20722;DHT22;10522;52.198;9.890;2023-04-25T07:30:08;8.20;99.90
20722;DHT22;10522;52.198;9.890;2023-04-25T07:32:34;7.90;99.90
20722;DHT22;10522;52.198;9.890;2023-04-25T07:35:00;8.00;99.90
20722;DHT22;10522;52.198;9.890;2023-04-25T07:37:27;8.00;99.90
20722;DHT22;10522;52.198;9.890;2023-04-25T07:39:52;8.20;99.90
20722;DHT22;10522;52.198;9.890;2023-04-25T07:42:18;8.20;99.90
20722;DHT22;10522;52.198;9.890;2023-04-25T07:44:43;7.80;99.90
20722;DHT22;10522;52.198;9.890;2023-04-25T07:47:09;7.60;99.90
20722;DHT22;10522;52.198;9.890;2023-04-25T07:49:36;8.20;99.90
20722;DHT22;10522;52.198;9.890;2023-04-25T07:52:04;8.50;99.90
20722;DHT22;10522;52.198;9.890;2023-04-25T07:54:30;8.60;99.90
20722;DHT22;10522;52.198;9.890;2023-04-25T07:56:56;8.20;99.90
20722;DHT22;10522;52.198;9.890;2023-04-25T07:59:21;7.90;99.90
20722;DHT22;10522;52.198;9.890;2023-04-25T08:01:47;7.50;99.90
20722;DHT22;10522;52.198;9.890;2023-04-25T08:04:13;7.30;99.90
20722;DHT22;10522;52.198;9.890;2023-04-25T08:06:39;7.20;99.90
20722;DHT22;10522;52.198;9.890;2023-04-25T08:09:05;7.30;99.90
20722;DHT22;10522;52.198;9.890;2023-04-25T08:11:31;7.50;99.90
20722;DHT22;10522;52.198;9.890;2023-04-25T08:13:57;7.50;99.90
20722;DHT22;10522;52.198;9.890;2023-04-25T08:16:22;7.60;99.90
20722;DHT22;10522;52.198;9.890;2023-04-25T08:18:49;7.70;99.90
20722;DHT22;10522;52.198;9.890;2023-04-25T08:21:15;7.90;99.90
20722;DHT22;10522;52.198;9.890;2023-04-25T08:23:41;7.90;99.90
20722;DHT22;10522;52.198;9.890;2023-04-25T08:26:06;8.00;99.90
20722;DHT22;10522;52.198;9.890;2023-04-25T08:28:32;8.00;99.90
20722;DHT22;10522;52.198;9.890;2023-04-25T08:30:58;8.00;99.90
20722;DHT22;10522;52.198;9.890;2023-04-25T08:33:23;8.00;99.90
20722;DHT22;10522;52.198;9.890;2023-04-25T08:35:49;7.90;99.90
20722;DHT22;10522;52.198;9.890;2023-04-25T08:38:15;7.70;99.90
20722;DHT22;10522;52.198;9.890;2023-04-25T08:40:41;8.10;99.90
20722;DHT22;10522;52.198;9.890;2023-04-25T08:43:08;8.70;99.90
20722;DHT22;10522;52.198;9.890;2023-04-25T08:45:39;9.30;99.90
20722;DHT22;10522;52.198;9.890;2023-04-25T08:48:11;9.30;99.90
20722;DHT22;10522;52.198;9.890;2023-04-25T08:50:54;9.20;99.90
20722;DHT22;10522;52.198;9.890;2023-04-25T08:53:28;9.20;99.90
20722;DHT22;10522;52.198;9.890;2023-04-25T08:55:55;9.40;99.90
20722;DHT22;10522;52.198;9.890;2023-04-25T08:58:21;9.20;99.90
20722;DHT22;10522;52.198;9.890;2023-04-25T09:00:50;9.20;99.90
20722;DHT22;10522;52.198;9.890;2023-04-25T09:03:17;9.60;99.90
20722;DHT22;10522;52.198;9.890;2023-04-25T09:05:43;9.80;99.90
20722;DHT22;10522;52.198;9.890;2023-04-25T09:08:09;9.70;99.90
20722;DHT22;10522;52.198;9.890;2023-04-25T09:10:35;9.20;99.90
20722;DHT22;10522;52.198;9.890;2023-04-25T09:13:07;8.70;99.90
20722;DHT22;10522;52.198;9.890;2023-04-25T09:15:52;8.40;99.90
20722;DHT22;10522;52.198;9.890;2023-04-25T09:18:36;8.10;99.90
20722;DHT22;10522;52.198;9.890;2023-04-25T09:23:40;7.80;99.90
20722;DHT22;10522;52.198;9.890;2023-04-25T09:26:07;7.70;99.90
20722;DHT22;10522;52.198;9.890;2023-04-25T09:28:34;7.70;99.90
20722;DHT22;10522;52.198;9.890;2023-04-25T09:31:00;7.70;99.90
20722;DHT22;10522;52.198;9.890;2023-04-25T09:33:33;7.90;99.90
20722;DHT22;10522;52.198;9.890;2023-04-25T09:36:09;7.90;99.90
20722;DHT22;10522;52.198;9.890;2023-04-25T09:38:44;8.20;99.90
20722;DHT22;10522;52.198;9.890;2023-04-25T09:41:10;9.10;99.90
20722;DHT22;10522;52.198;9.890;2023-04-25T09:43:36;9.60;99.90
20722;DHT22;10522;52.198;9.890;2023-04-25T09:46:04;9.50;99.90
20722;DHT22;10522;52.198;9.890;2023-04-25T09:48:32;9.40;99.90
20722;DHT22;10522;52.198;9.890;2023-04-25T09:51:09;9.00;99.90
20722;DHT22;10522;52.198;9.890;2023-04-25T09:53:41;9.50;99.90
20722;DHT22;10522;52.198;9.890;2023-04-25T09:56:08;9.70;99.90
20722;DHT22;10522;52.198;9.890;2023-04-25T09:58:35;9.60;99.90
20722;DHT22;10522;52.198;9.890;2023-04-25T10:01:05;9.40;99.90
20722;DHT22;10522;52.198;9.890;2023-04-25T10:03:33;9.00;99.90
20722;DHT22;10522;52.198;9.890;2023-04-25T10:06:03;8.70;99.90
20722;DHT22;10522;52.198;9.890;2023-04-25T10:08:36;8.60;99.90
20722;DHT22;10522;52.198;9.890;2023-04-25T10:11:04;8.40;99.90
20722;DHT22;10522;52.198;9.890;2023-04-25T10:13:31;8.60;99.90
20722;DHT22;10522;52.198;9.890;2023-04-25T10:15:58;8.70;99.90
20722;DHT22;10522;52.198;9.890;2023-04-25T10:18:26;8.90;99.90
20722;DHT22;10522;52.198;9.890;2023-04-25T10:20:57;8.70;99.90
20722;DHT22;10522;52.198;9.890;2023-04-25T10:23:24;9.70;99.90
20722;DHT22;10522;52.198;9.890;2023-04-25T10:25:53;10.30;99.90
20722;DHT22;10522;52.198;9.890;2023-04-25T10:28:20;10.30;99.90
20722;DHT22;10522;52.198;9.890;2023-04-25T10:31:07;10.60;99.90
20722;DHT22;10522;52.198;9.890;2023-04-25T10:33:38;10.70;99.90
20722;DHT22;10522;52.198;9.890;2023-04-25T10:36:11;10.40;99.90
20722;DHT22;10522;52.198;9.890;2023-04-25T10:38:37;10.00;99.90
20722;DHT22;10522;52.198;9.890;2023-04-25T10:41:08;9.60;99.90
20722;DHT22;10522;52.198;9.890;2023-04-25T10:43:35;9.40;99.90
20722;DHT22;10522;52.198;9.890;2023-04-25T10:46:26;9.10;99.90
20722;DHT22;10522;52.198;9.890;2023-04-25T10:48:57;8.90;99.90
20722;DHT22;10522;52.198;9.890;2023-04-25T10:51:24;8.70;99.90
20722;DHT22;10522;52.198;9.890;2023-04-25T10:54:04;8.40;99.90
20722;DHT22;10522;52.198;9.890;2023-04-25T10:56:31;8.30;99.90
20722;DHT22;10522;52.198;9.890;2023-04-25T10:59:11;8.20;99.90
20722;DHT22;10522;52.198;9.890;2023-04-25T11:01:39;8.00;99.90
20722;DHT22;10522;52.198;9.890;2023-04-25T11:04:06;8.20;99.90
20722;DHT22;10522;52.198;9.890;2023-04-25T11:06:52;8.30;99.90
20722;DHT22;10522;52.198;9.890;2023-04-25T11:09:23;8.40;99.90
20722;DHT22;10522;52.198;9.890;2023-04-25T11:11:56;8.50;99.90
20722;DHT22;10522;52.198;9.890;2023-04-25T11:14:22;8.70;99.90
20722;DHT22;10522;52.198;9.890;2023-04-25T11:16:56;8.80;99.90
20722;DHT22;10522;52.198;9.890;2023-04-25T11:19:22;9.00;99.90
20722;DHT22;10522;52.198;9.890;2023-04-25T11:21:48;9.10;99.90
20722;DHT22;10522;52.198;9.890;2023-04-25T11:24:15;9.00;99.90
20722;DHT22;10522;52.198;9.890;2023-04-25T11:26:42;9.00;99.90
20722;DHT22;10522;52.198;9.890;2023-04-25T11:29:08;8.90;99.90
20722;DHT22;10522;52.198;9.890;2023-04-25T11:31:34;8.80;99.90
20722;DHT22;10522;52.198;9.890;2023-04-25T11:33:59;8.70;99.90
20722;DHT22;10522;52.198;9.890;2023-04-25T11:36:26;8.60;99.90
20722;DHT22;10522;52.198;9.890;2023-04-25T11:38:53;8.70;99.90
20722;DHT22;10522;52.198;9.890;2023-04-25T11:41:19;8.70;99.90
20722;DHT22;10522;52.198;9.890;2023-04-25T11:43:45;9.60;99.90
20722;DHT22;10522;52.198;9.890;2023-04-25T11:46:11;9.80;99.90
20722;DHT22;10522;52.198;9.890;2023-04-25T11:48:46;9.40;99.90
20722;DHT22;10522;52.198;9.890;2023-04-25T11:51:13;9.00;99.90
20722;DHT22;10522;52.198;9.890;2023-04-25T11:53:41;8.90;99.90
20722;DHT22;10522;52.198;9.890;2023-04-25T11:56:11;8.80;99.90
20722;DHT22;10522;52.198;9.890;2023-04-25T11:58:59;8.70;99.90
20722;DHT22;10522;52.198;9.890;2023-04-25T12:01:29;8.60;99.90
20722;DHT22;10522;52.198;9.890;2023-04-25T12:03:59;8.60;99.90
20722;DHT22;10522;52.198;9.890;2023-04-25T12:06:37;8.70;99.90
20722;DHT22;10522;52.198;9.890;2023-04-25T12:09:08;8.40;99.90
20722;DHT22;10522;52.198;9.890;2023-04-25T12:11:41;7.90;99.90
20722;DHT22;10522;52.198;9.890;2023-04-25T12:14:08;7.60;99.90
20722;DHT22;10522;52.198;9.890;2023-04-25T12:16:44;7.40;99.90
20722;DHT22;10522;52.198;9.890;2023-04-25T12:19:09;7.20;99.90
20722;DHT22;10522;52.198;9.890;2023-04-25T12:21:38;7.20;99.90
20722;DHT22;10522;52.198;9.890;2023-04-25T12:24:18;7.30;99.90
20722;DHT22;10522;52.198;9.890;2023-04-25T12:27:09;7.50;99.90
20722;DHT22;10522;52.198;9.890;2023-04-25T12:29:34;7.80;99.90
20722;DHT22;10522;52.198;9.890;2023-04-25T12:32:00;8.20;99.90
20722;DHT22;10522;52.198;9.890;2023-04-25T12:34:29;8.40;99.90
20722;DHT22;10522;52.198;9.890;2023-04-25T12:36:56;8.70;99.90
20722;DHT22;10522;52.198;9.890;2023-04-25T12:39:24;8.80;99.90
20722;DHT22;10522;52.198;9.890;2023-04-25T12:41:50;8.80;99.90
20722;DHT22;10522;52.198;9.890;2023-04-25T12:44:16;9.30;99.90
20722;DHT22;10522;52.198;9.890;2023-04-25T12:46:42;9.70;99.90
20722;DHT22;10522;52.198;9.890;2023-04-25T12:49:08;10.20;99.90
20722;DHT22;10522;52.198;9.890;2023-04-25T12:51:35;10.30;99.90
20722;DHT22;10522;52.198;9.890;2023-04-25T12:54:01;10.60;99.90
20722;DHT22;10522;52.198;9.890;2023-04-25T12:56:27;10.90;99.90
20722;DHT22;10522;52.198;9.890;2023-04-25T12:58:54;10.90;99.90
20722;DHT22;10522;52.198;9.890;2023-04-25T13:01:20;10.50;99.90
20722;DHT22;10522;52.198;9.890;2023-04-25T13:03:46;10.70;99.90
20722;DHT22;10522;52.198;9.890;2023-04-25T13:06:13;10.80;99.90
20722;DHT22;10522;52.198;9.890;2023-04-25T13:08:39;10.40;99.90
20722;DHT22;10522;52.198;9.890;2023-04-25T13:11:05;10.00;99.90
20722;DHT22;10522;52.198;9.890;2023-04-25T13:13:31;9.90;99.90
20722;DHT22;10522;52.198;9.890;2023-04-25T13:15:58;9.60;99.90
20722;DHT22;10522;52.198;9.890;2023-04-25T13:18:23;9.50;99.90
20722;DHT22;10522;52.198;9.890;2023-04-25T13:20:52;9.00;99.90
20722;DHT22;10522;52.198;9.890;2023-04-25T13:23:18;8.80;99.90
20722;DHT22;10522;52.198;9.890;2023-04-25T13:25:44;8.50;99.90
20722;DHT22;10522;52.198;9.890;2023-04-25T13:28:10;8.20;99.90
20722;DHT22;10522;52.198;9.890;2023-04-25T13:30:36;8.10;99.90
20722;DHT22;10522;52.198;9.890;2023-04-25T13:33:02;8.10;99.90
20722;DHT22;10522;52.198;9.890;2023-04-25T13:35:29;8.00;99.90
20722;DHT22;10522;52.198;9.890;2023-04-25T13:37:56;7.90;99.90
20722;DHT22;10522;52.198;9.890;2023-04-25T13:40:22;7.70;99.90
20722;DHT22;10522;52.198;9.890;2023-04-25T13:42:47;7.50;99.90
20722;DHT22;10522;52.198;9.890;2023-04-25T13:45:13;7.40;99.90
20722;DHT22;10522;52.198;9.890;2023-04-25T13:47:38;7.30;99.90
20722;DHT22;10522;52.198;9.890;2023-04-25T13:50:05;7.30;99.90
20722;DHT22;10522;52.198;9.890;2023-04-25T13:52:31;7.40;99.90
20722;DHT22;10522;52.198;9.890;2023-04-25T13:54:57;7.60;99.90
20722;DHT22;10522;52.198;9.890;2023-04-25T13:57:23;7.80;99.90
20722;DHT22;10522;52.198;9.890;2023-04-25T13:59:49;8.30;99.90
20722;DHT22;10522;52.198;9.890;2023-04-25T14:02:15;8.70;99.90
20722;DHT22;10522;52.198;9.890;2023-04-25T14:04:41;9.10;99.90
20722;DHT22;10522;52.198;9.890;2023-04-25T14:07:06;9.50;99.90
20722;DHT22;10522;52.198;9.890;2023-04-25T14:09:32;9.70;99.90
20722;DHT22;10522;52.198;9.890;2023-04-25T14:11:58;10.20;99.90
20722;DHT22;10522;52.198;9.890;2023-04-25T14:14:24;10.50;99.90
20722;DHT22;10522;52.198;9.890;2023-04-25T14:16:50;10.90;99.90
20722;DHT22;10522;52.198;9.890;2023-04-25T14:19:17;10.80;99.90
20722;DHT22;10522;52.198;9.890;2023-04-25T14:21:43;10.90;99.90
20722;DHT22;10522;52.198;9.890;2023-04-25T14:24:09;10.60;99.90
20722;DHT22;10522;52.198;9.890;2023-04-25T14:26:36;10.40;99.90
20722;DHT22;10522;52.198;9.890;2023-04-25T14:29:03;10.10;99.90
20722;DHT22;10522;52.198;9.890;2023-04-25T14:31:29;9.70;99.90
20722;DHT22;10522;52.198;9.890;2023-04-25T14:33:54;9.10;99.90
20722;DHT22;10522;52.198;9.890;2023-04-25T14:36:20;8.20;99.90
20722;DHT22;10522;52.198;9.890;2023-04-25T14:38:46;7.50;99.90
20722;DHT22;10522;52.198;9.890;2023-04-25T14:41:12;7.20;99.90
20722;DHT22;10522;52.198;9.890;2023-04-25T14:43:37;7.20;99.90
20722;DHT22;10522;52.198;9.890;2023-04-25T14:46:05;7.30;99.90
20722;DHT22;10522;52.198;9.890;2023-04-25T14:48:31;7.50;99.90
20722;DHT22;10522;52.198;9.890;2023-04-25T14:50:57;7.60;99.90
20722;DHT22;10522;52.198;9.890;2023-04-25T14:53:23;8.10;99.90
20722;DHT22;10522;52.198;9.890;2023-04-25T14:55:49;8.70;99.90
20722;DHT22;10522;52.198;9.890;2023-04-25T14:58:15;9.70;99.90
20722;DHT22;10522;52.198;9.890;2023-04-25T15:00:41;10.40;99.90
20722;DHT22;10522;52.198;9.890;2023-04-25T15:03:06;10.60;99.90
20722;DHT22;10522;52.198;9.890;2023-04-25T15:05:33;11.50;99.90
20722;DHT22;10522;52.198;9.890;2023-04-25T15:07:59;11.90;99.90
20722;DHT22;10522;52.198;9.890;2023-04-25T15:10:25;12.10;99.90
20722;DHT22;10522;52.198;9.890;2023-04-25T15:12:51;12.10;99.90
20722;DHT22;10522;52.198;9.890;2023-04-25T15:15:18;11.70;99.90
20722;DHT22;10522;52.198;9.890;2023-04-25T15:17:44;11.30;99.90
20722;DHT22;10522;52.198;9.890;2023-04-25T15:20:11;11.60;99.90
20722;DHT22;10522;52.198;9.890;2023-04-25T15:22:41;12.00;99.90
20722;DHT22;10522;52.198;9.890;2023-04-25T15:25:07;11.10;99.90
20722;DHT22;10522;52.198;9.890;2023-04-25T15:27:34;10.90;99.90
20722;DHT22;10522;52.198;9.890;2023-04-25T15:30:06;10.40;99.90
20722;DHT22;10522;52.198;9.890;2023-04-25T15:32:33;9.60;99.90
20722;DHT22;10522;52.198;9.890;2023-04-25T15:34:58;9.20;99.90
20722;DHT22;10522;52.198;9.890;2023-04-25T15:37:24;9.00;99.90
20722;DHT22;10522;52.198;9.890;2023-04-25T15:40:06;9.00;99.90
20722;DHT22;10522;52.198;9.890;2023-04-25T15:45:09;9.40;99.90
20722;DHT22;10522;52.198;9.890;2023-04-25T15:47:36;9.60;99.90
20722;DHT22;10522;52.198;9.890;2023-04-25T15:50:07;9.60;99.90